sensor_id;sensor_type;location;lat;lon;timestamp;pressure;altitude;pressure_sealevel;temperature;humidity
5595;BME280;1003;48.002;7.788;2023-10-31T00:00:49;98156.75;;;11.39;100.00
5595;BME280;1003;48.002;7.788;2023-10-31T00:03:33;98157.72;;;11.35;100.00
5595;BME280;1003;48.002;7.788;2023-10-31T00:06:21;98145.44;;;11.24;100.00
5595;BME280;1003;48.002;7.788;2023-10-31T00:08:50;98145.50;;;11.22;100.00
5595;BME280;1003;48.002;7.788;2023-10-31T00:11:23;98129.78;;;11.16;100.00
5595;BME280;1003;48.002;7.788;2023-10-31T00:14:02;98127.44;;;11.10;100.00
5595;BME280;1003;48.002;7.788;2023-10-31T00:16:47;98120.72;;;11.10;100.00
5595;BME280;1003;48.002;7.788;2023-10-31T00:19:21;98119.97;;;11.07;100.00
5595;BME280;1003;48.002;7.788;2023-10-31T00:21:50;98119.97;;;11.07;100.00
5595;BME280;1003;48.002;7.788;2023-10-31T00:24:20;98125.81;;;11.09;100.00
5595;BME280;1003;48.002;7.788;2023-10-31T00:26:59;98123.31;;;11.07;100.00
5595;BME280;1003;48.002;7.788;2023-10-31T00:30:14;98119.91;;;11.08;100.00
5595;BME280;1003;48.002;7.788;2023-10-31T00:32:41;98115.63;;;11.12;100.00
5595;BME280;1003;48.002;7.788;2023-10-31T00:35:11;98116.97;;;11.23;100.00
5595;BME280;1003;48.002;7.788;2023-10-31T00:37:40;98117.88;;;11.21;100.00
5595;BME280;1003;48.002;7.788;2023-10-31T00:40:15;98113.41;;;11.30;100.00
5595;BME280;1003;48.002;7.788;2023-10-31T00:42:46;98107.41;;;11.35;100.00
5595;BME280;1003;48.002;7.788;2023-10-31T00:45:28;98096.31;;;11.40;100.00
5595;BME280;1003;48.002;7.788;2023-10-31T00:47:57;98097.19;;;11.39;100.00
5595;BME280;1003;48.002;7.788;2023-10-31T00:50:24;98077.13;;;11.38;100.00
5595;BME280;1003;48.002;7.788;2023-10-31T00:52:53;98081.09;;;11.45;100.00
5595;BME280;1003;48.002;7.788;2023-10-31T00:55:23;98067.81;;;11.41;100.00
5595;BME280;1003;48.002;7.788;2023-10-31T00:58:01;98066.94;;;11.41;100.00
5595;BME280;1003;48.002;7.788;2023-10-31T01:00:56;98068.84;;;11.34;100.00
5595;BME280;1003;48.002;7.788;2023-10-31T01:03:25;98054.09;;;11.23;100.00
5595;BME280;1003;48.002;7.788;2023-10-31T01:06:08;98058.25;;;11.24;100.00
5595;BME280;1003;48.002;7.788;2023-10-31T01:08:35;98055.56;;;11.30;100.00
5595;BME280;1003;48.002;7.788;2023-10-31T01:11:10;98047.91;;;11.34;100.00
5595;BME280;1003;48.002;7.788;2023-10-31T01:13:38;98052.88;;;11.35;100.00
5595;BME280;1003;48.002;7.788;2023-10-31T01:16:07;98051.09;;;11.39;100.00
5595;BME280;1003;48.002;7.788;2023-10-31T01:18:52;98053.75;;;11.34;100.00
5595;BME280;1003;48.002;7.788;2023-10-31T01:21:19;98042.00;;;11.35;100.00
5595;BME280;1003;48.002;7.788;2023-10-31T01:23:46;98041.84;;;11.39;100.00
5595;BME280;1003;48.002;7.788;2023-10-31T01:26:14;98046.94;;;11.38;100.00
5595;BME280;1003;48.002;7.788;2023-10-31T01:28:43;98035.28;;;11.35;100.00
5595;BME280;1003;48.002;7.788;2023-10-31T01:31:12;98035.31;;;11.34;100.00
5595;BME280;1003;48.002;7.788;2023-10-31T01:33:39;98042.97;;;11.30;100.00
5595;BME280;1003;48.002;7.788;2023-10-31T01:36:07;98043.75;;;11.33;100.00
5595;BME280;1003;48.002;7.788;2023-10-31T01:38:37;98037.06;;;11.32;100.00
5595;BME280;1003;48.002;7.788;2023-10-31T01:41:07;98044.50;;;11.35;100.00
5595;BME280;1003;48.002;7.788;2023-10-31T01:43:36;98040.31;;;11.35;100.00
5595;BME280;1003;48.002;7.788;2023-10-31T01:46:04;98030.25;;;11.35;100.00
5595;BME280;1003;48.002;7.788;2023-10-31T01:48:36;98047.97;;;11.32;100.00
5595;BME280;1003;48.002;7.788;2023-10-31T01:51:12;98035.66;;;11.23;100.00
5595;BME280;1003;48.002;7.788;2023-10-31T01:53:40;98041.47;;;11.25;100.00
5595;BME280;1003;48.002;7.788;2023-10-31T01:56:12;98044.13;;;11.20;100.00
5595;BME280;1003;48.002;7.788;2023-10-31T01:58:40;98047.41;;;11.22;100.00
5595;BME280;1003;48.002;7.788;2023-10-31T02:01:19;98051.69;;;11.20;100.00
5595;BME280;1003;48.002;7.788;2023-10-31T02:03:53;98063.50;;;11.17;100.00
5595;BME280;1003;48.002;7.788;2023-10-31T02:06:21;98057.91;;;11.09;100.00
5595;BME280;1003;48.002;7.788;2023-10-31T02:08:50;98076.34;;;11.09;100.00
5595;BME280;1003;48.002;7.788;2023-10-31T02:11:17;98073.91;;;11.06;100.00
5595;BME280;1003;48.002;7.788;2023-10-31T02:13:44;98084.56;;;11.14;100.00
5595;BME280;1003;48.002;7.788;2023-10-31T02:16:12;98090.41;;;11.15;100.00
5595;BME280;1003;48.002;7.788;2023-10-31T02:18:39;98101.47;;;11.09;100.00
5595;BME280;1003;48.002;7.788;2023-10-31T02:21:08;98108.22;;;11.07;100.00
5595;BME280;1003;48.002;7.788;2023-10-31T02:23:39;98107.28;;;11.11;100.00
5595;BME280;1003;48.002;7.788;2023-10-31T02:26:08;98114.91;;;11.08;100.00
5595;BME280;1003;48.002;7.788;2023-10-31T02:28:35;98118.28;;;11.07;100.00
5595;BME280;1003;48.002;7.788;2023-10-31T02:31:02;98123.94;;;11.14;100.00
5595;BME280;1003;48.002;7.788;2023-10-31T02:33:29;98134.00;;;11.14;100.00
5595;BME280;1003;48.002;7.788;2023-10-31T02:35:56;98132.34;;;11.14;100.00
5595;BME280;1003;48.002;7.788;2023-10-31T02:38:23;98132.59;;;11.05;100.00
5595;BME280;1003;48.002;7.788;2023-10-31T02:40:51;98132.78;;;10.99;100.00
5595;BME280;1003;48.002;7.788;2023-10-31T02:43:21;98140.22;;;11.02;100.00
5595;BME280;1003;48.002;7.788;2023-10-31T02:45:48;98135.38;;;10.96;100.00
5595;BME280;1003;48.002;7.788;2023-10-31T02:48:20;98138.00;;;10.91;100.00
5595;BME280;1003;48.002;7.788;2023-10-31T02:50:48;98135.53;;;10.90;100.00
5595;BME280;1003;48.002;7.788;2023-10-31T02:53:15;98141.50;;;10.87;100.00
5595;BME280;1003;48.002;7.788;2023-10-31T02:55:42;98141.34;;;10.92;100.00
5595;BME280;1003;48.002;7.788;2023-10-31T02:58:10;98146.53;;;10.87;100.00
5595;BME280;1003;48.002;7.788;2023-10-31T03:00:37;98153.22;;;10.87;100.00
5595;BME280;1003;48.002;7.788;2023-10-31T03:03:04;98169.88;;;10.91;100.00
5595;BME280;1003;48.002;7.788;2023-10-31T03:05:33;98177.41;;;10.91;100.00
5595;BME280;1003;48.002;7.788;2023-10-31T03:08:01;98181.44;;;10.96;100.00
5595;BME280;1003;48.002;7.788;2023-10-31T03:10:29;98172.38;;;10.91;100.00
5595;BME280;1003;48.002;7.788;2023-10-31T03:12:56;98176.41;;;10.96;100.00
5595;BME280;1003;48.002;7.788;2023-10-31T03:15:26;98183.94;;;10.98;100.00
5595;BME280;1003;48.002;7.788;2023-10-31T03:17:53;98178.09;;;10.96;100.00
5595;BME280;1003;48.002;7.788;2023-10-31T03:20:23;98188.00;;;11.02;100.00
5595;BME280;1003;48.002;7.788;2023-10-31T03:22:51;98186.28;;;11.04;100.00
5595;BME280;1003;48.002;7.788;2023-10-31T03:25:18;98188.09;;;10.97;100.00
5595;BME280;1003;48.002;7.788;2023-10-31T03:27:46;98185.53;;;11.00;100.00
5595;BME280;1003;48.002;7.788;2023-10-31T03:30:13;98180.44;;;11.03;100.00
5595;BME280;1003;48.002;7.788;2023-10-31T03:32:42;98186.97;;;11.09;100.00
5595;BME280;1003;48.002;7.788;2023-10-31T03:35:09;98180.50;;;11.00;100.00
5595;BME280;1003;48.002;7.788;2023-10-31T03:37:36;98162.16;;;10.97;100.00
5595;BME280;1003;48.002;7.788;2023-10-31T03:40:08;98158.03;;;10.94;100.00
5595;BME280;1003;48.002;7.788;2023-10-31T03:42:35;98168.84;;;10.98;100.00
5595;BME280;1003;48.002;7.788;2023-10-31T03:45:02;98167.75;;;11.07;100.00
5595;BME280;1003;48.002;7.788;2023-10-31T03:47:29;98166.06;;;11.07;100.00
5595;BME280;1003;48.002;7.788;2023-10-31T03:49:57;98159.31;;;11.09;100.00
5595;BME280;1003;48.002;7.788;2023-10-31T03:52:24;98153.66;;;11.01;100.00
5595;BME280;1003;48.002;7.788;2023-10-31T03:54:51;98157.00;;;11.01;100.00
5595;BME280;1003;48.002;7.788;2023-10-31T03:57:18;98155.34;;;11.00;100.00
5595;BME280;1003;48.002;7.788;2023-10-31T03:59:48;98149.69;;;10.94;100.00
5595;BME280;1003;48.002;7.788;2023-10-31T04:02:34;98152.28;;;10.91;100.00
5595;BME280;1003;48.002;7.788;2023-10-31T04:05:02;98150.56;;;10.93;100.00
5595;BME280;1003;48.002;7.788;2023-10-31T04:07:33;98160.22;;;10.77;100.00
5595;BME280;1003;48.002;7.788;2023-10-31T04:10:37;98164.41;;;10.76;100.00
5595;BME280;1003;48.002;7.788;2023-10-31T04:13:04;98167.91;;;10.71;100.00
5595;BME280;1003;48.002;7.788;2023-10-31T04:15:31;98171.16;;;10.74;100.00
5595;BME280;1003;48.002;7.788;2023-10-31T04:18:21;98173.66;;;10.74;100.00
5595;BME280;1003;48.002;7.788;2023-10-31T04:20:57;98176.19;;;10.74;100.00
5595;BME280;1003;48.002;7.788;2023-10-31T04:23:25;98185.47;;;10.72;100.00
5595;BME280;1003;48.002;7.788;2023-10-31T04:26:07;98182.31;;;10.64;100.00
5595;BME280;1003;48.002;7.788;2023-10-31T04:29:12;98186.34;;;10.70;100.00
5595;BME280;1003;48.002;7.788;2023-10-31T04:31:48;98188.97;;;10.65;100.00
5595;BME280;1003;48.002;7.788;2023-10-31T04:37:30;98200.72;;;10.65;100.00
5595;BME280;1003;48.002;7.788;2023-10-31T04:40:10;98203.09;;;10.71;100.00
5595;BME280;1003;48.002;7.788;2023-10-31T04:45:46;98195.28;;;10.80;100.00
5595;BME280;1003;48.002;7.788;2023-10-31T04:48:13;98196.03;;;10.84;100.00
5595;BME280;1003;48.002;7.788;2023-10-31T04:50:52;98200.31;;;10.80;100.00
5595;BME280;1003;48.002;7.788;2023-10-31T04:53:34;98199.59;;;10.76;100.00
5595;BME280;1003;48.002;7.788;2023-10-31T04:56:22;98202.88;;;10.78;100.00
5595;BME280;1003;48.002;7.788;2023-10-31T04:59:07;98205.19;;;10.86;100.00
5595;BME280;1003;48.002;7.788;2023-10-31T05:01:49;98205.31;;;10.82;100.00
5595;BME280;1003;48.002;7.788;2023-10-31T05:04:42;98198.75;;;10.76;100.00
5595;BME280;1003;48.002;7.788;2023-10-31T05:07:10;98201.31;;;10.74;100.00
5595;BME280;1003;48.002;7.788;2023-10-31T05:09:41;98196.22;;;10.76;100.00
5595;BME280;1003;48.002;7.788;2023-10-31T05:12:09;98204.34;;;10.87;100.00
5595;BME280;1003;48.002;7.788;2023-10-31T05:14:37;98196.88;;;10.84;100.00
5595;BME280;1003;48.002;7.788;2023-10-31T05:17:07;98193.53;;;10.84;100.00
5595;BME280;1003;48.002;7.788;2023-10-31T05:19:42;98204.34;;;10.87;100.00
5595;BME280;1003;48.002;7.788;2023-10-31T05:22:09;98207.50;;;10.94;100.00
5595;BME280;1003;48.002;7.788;2023-10-31T05:24:37;98200.69;;;10.97;100.00
5595;BME280;1003;48.002;7.788;2023-10-31T05:27:06;98197.44;;;10.94;100.00
5595;BME280;1003;48.002;7.788;2023-10-31T05:29:41;98200.72;;;10.96;100.00
5595;BME280;1003;48.002;7.788;2023-10-31T05:32:09;98192.44;;;10.92;100.00
5595;BME280;1003;48.002;7.788;2023-10-31T05:34:38;98189.03;;;10.95;100.00
5595;BME280;1003;48.002;7.788;2023-10-31T05:37:05;98193.31;;;10.91;100.00
5595;BME280;1003;48.002;7.788;2023-10-31T05:39:32;98189.09;;;10.92;100.00
5595;BME280;1003;48.002;7.788;2023-10-31T05:42:02;98169.56;;;11.01;100.00
5595;BME280;1003;48.002;7.788;2023-10-31T05:44:30;97961.78;;;11.00;100.00
5595;BME280;1003;48.002;7.788;2023-10-31T05:46:57;97964.28;;;11.00;100.00
5595;BME280;1003;48.002;7.788;2023-10-31T05:49:26;97956.81;;;10.99;100.00
5595;BME280;1003;48.002;7.788;2023-10-31T05:51:53;97960.19;;;10.98;100.00
5595;BME280;1003;48.002;7.788;2023-10-31T05:54:21;97953.56;;;10.95;100.00
5595;BME280;1003;48.002;7.788;2023-10-31T05:56:48;97963.59;;;10.95;100.00
5595;BME280;1003;48.002;7.788;2023-10-31T05:59:25;97971.19;;;10.94;100.00
5595;BME280;1003;48.002;7.788;2023-10-31T06:01:54;97963.03;;;10.87;100.00
5595;BME280;1003;48.002;7.788;2023-10-31T06:04:24;97956.19;;;10.91;100.00
5595;BME280;1003;48.002;7.788;2023-10-31T06:06:57;97959.53;;;10.91;100.00
5595;BME280;1003;48.002;7.788;2023-10-31T06:09:24;97960.47;;;10.89;100.00
5595;BME280;1003;48.002;7.788;2023-10-31T06:11:53;97975.09;;;11.02;100.00
5595;BME280;1003;48.002;7.788;2023-10-31T06:14:22;97981.75;;;11.05;100.00
5595;BME280;1003;48.002;7.788;2023-10-31T06:16:54;97966.03;;;10.98;100.00
5595;BME280;1003;48.002;7.788;2023-10-31T06:19:22;97971.16;;;10.95;100.00
5595;BME280;1003;48.002;7.788;2023-10-31T06:21:50;97981.25;;;10.94;100.00
5595;BME280;1003;48.002;7.788;2023-10-31T06:24:21;97969.78;;;10.85;100.00
5595;BME280;1003;48.002;7.788;2023-10-31T06:27:04;97972.28;;;10.85;100.00
5595;BME280;1003;48.002;7.788;2023-10-31T06:29:39;97982.97;;;10.92;100.00
5595;BME280;1003;48.002;7.788;2023-10-31T06:32:24;97984.72;;;10.90;100.00
5595;BME280;1003;48.002;7.788;2023-10-31T06:34:52;97989.22;;;10.80;100.00
5595;BME280;1003;48.002;7.788;2023-10-31T06:37:22;97984.19;;;10.80;100.00
5595;BME280;1003;48.002;7.788;2023-10-31T06:39:50;97984.31;;;10.75;100.00
5595;BME280;1003;48.002;7.788;2023-10-31T06:42:17;98004.59;;;10.97;100.00
5595;BME280;1003;48.002;7.788;2023-10-31T06:44:50;98007.34;;;10.90;100.00
5595;BME280;1003;48.002;7.788;2023-10-31T06:47:28;97994.91;;;10.85;100.00
5595;BME280;1003;48.002;7.788;2023-10-31T06:50:51;98009.59;;;10.99;100.00
5595;BME280;1003;48.002;7.788;2023-10-31T07:00:55;98011.63;;;11.14;100.00
5595;BME280;1003;48.002;7.788;2023-10-31T07:03:25;98023.72;;;11.29;100.00
5595;BME280;1003;48.002;7.788;2023-10-31T07:05:53;98018.00;;;11.24;100.00
5595;BME280;1003;48.002;7.788;2023-10-31T07:08:22;98027.00;;;11.32;100.00
5595;BME280;1003;48.002;7.788;2023-10-31T07:10:49;98034.03;;;11.48;100.00
5595;BME280;1003;48.002;7.788;2023-10-31T07:13:16;98028.94;;;11.50;100.00
5595;BME280;1003;48.002;7.788;2023-10-31T07:15:44;98053.06;;;11.55;100.00
5595;BME280;1003;48.002;7.788;2023-10-31T07:20:50;98054.47;;;11.64;100.00
5595;BME280;1003;48.002;7.788;2023-10-31T07:23:17;98055.81;;;11.74;100.00
5595;BME280;1003;48.002;7.788;2023-10-31T07:25:44;98057.38;;;11.78;100.00
5595;BME280;1003;48.002;7.788;2023-10-31T07:28:12;98061.47;;;11.81;100.00
5595;BME280;1003;48.002;7.788;2023-10-31T07:30:40;98067.94;;;11.90;100.00
5595;BME280;1003;48.002;7.788;2023-10-31T07:33:07;98055.50;;;11.85;100.00
5595;BME280;1003;48.002;7.788;2023-10-31T07:35:35;98057.66;;;11.96;100.00
5595;BME280;1003;48.002;7.788;2023-10-31T07:38:04;98070.88;;;12.02;100.00
5595;BME280;1003;48.002;7.788;2023-10-31T07:40:34;98055.97;;;11.96;100.00
5595;BME280;1003;48.002;7.788;2023-10-31T07:43:01;98070.09;;;12.00;100.00
5595;BME280;1003;48.002;7.788;2023-10-31T07:45:30;98129.50;;;12.06;100.00
5595;BME280;1003;48.002;7.788;2023-10-31T07:47:57;98135.47;;;12.03;100.00
5595;BME280;1003;48.002;7.788;2023-10-31T07:50:25;98142.59;;;12.16;100.00
5595;BME280;1003;48.002;7.788;2023-10-31T07:52:54;98144.94;;;12.22;100.00
5595;BME280;1003;48.002;7.788;2023-10-31T07:55:26;98155.72;;;12.25;100.00
5595;BME280;1003;48.002;7.788;2023-10-31T07:58:28;98155.50;;;12.31;100.00
5595;BME280;1003;48.002;7.788;2023-10-31T08:01:10;98160.47;;;12.34;100.00
5595;BME280;1003;48.002;7.788;2023-10-31T08:03:43;98159.53;;;12.37;100.00
5595;BME280;1003;48.002;7.788;2023-10-31T08:06:11;98159.13;;;12.49;100.00
5595;BME280;1003;48.002;7.788;2023-10-31T08:08:39;98170.03;;;12.50;100.00
5595;BME280;1003;48.002;7.788;2023-10-31T08:11:11;98165.06;;;12.47;100.00
5595;BME280;1003;48.002;7.788;2023-10-31T08:13:39;98168.47;;;12.46;100.00
5595;BME280;1003;48.002;7.788;2023-10-31T08:16:08;98161.06;;;12.41;100.00
5595;BME280;1003;48.002;7.788;2023-10-31T08:18:38;98171.94;;;12.43;100.00
5595;BME280;1003;48.002;7.788;2023-10-31T08:21:05;98164.56;;;12.37;100.00
5595;BME280;1003;48.002;7.788;2023-10-31T08:23:33;98213.25;;;12.38;100.00
5595;BME280;1003;48.002;7.788;2023-10-31T08:26:01;98219.97;;;12.39;100.00
5595;BME280;1003;48.002;7.788;2023-10-31T08:28:30;98230.81;;;12.41;100.00
5595;BME280;1003;48.002;7.788;2023-10-31T08:30:57;98248.97;;;12.50;100.00
5595;BME280;1003;48.002;7.788;2023-10-31T08:33:24;98249.44;;;12.61;100.00
5595;BME280;1003;48.002;7.788;2023-10-31T08:35:52;98252.97;;;12.56;100.00
5595;BME280;1003;48.002;7.788;2023-10-31T08:38:19;98267.28;;;12.80;100.00
5595;BME280;1003;48.002;7.788;2023-10-31T08:40:46;98254.88;;;12.74;100.00
5595;BME280;1003;48.002;7.788;2023-10-31T08:43:15;98270.59;;;12.82;100.00
5595;BME280;1003;48.002;7.788;2023-10-31T08:45:44;98275.00;;;13.01;100.00
5595;BME280;1003;48.002;7.788;2023-10-31T08:50:56;98266.72;;;12.97;100.00
5595;BME280;1003;48.002;7.788;2023-10-31T08:53:24;98251.41;;;13.02;100.00
5595;BME280;1003;48.002;7.788;2023-10-31T08:55:51;98252.91;;;13.07;100.00
5595;BME280;1003;48.002;7.788;2023-10-31T08:58:18;98273.47;;;13.22;100.00
5595;BME280;1003;48.002;7.788;2023-10-31T09:00:51;98265.09;;;13.20;100.00
5595;BME280;1003;48.002;7.788;2023-10-31T09:03:19;98266.91;;;13.39;100.00
5595;BME280;1003;48.002;7.788;2023-10-31T09:05:46;98249.63;;;13.29;100.00
5595;BME280;1003;48.002;7.788;2023-10-31T09:08:16;98267.63;;;13.43;100.00
5595;BME280;1003;48.002;7.788;2023-10-31T09:10:44;98249.47;;;13.57;100.00
5595;BME280;1003;48.002;7.788;2023-10-31T09:13:14;98251.06;;;13.59;100.00
5595;BME280;1003;48.002;7.788;2023-10-31T09:15:41;98241.91;;;13.57;100.00
5595;BME280;1003;48.002;7.788;2023-10-31T09:18:17;98244.72;;;13.71;100.00
5595;BME280;1003;48.002;7.788;2023-10-31T09:20:45;98227.34;;;13.85;100.00
5595;BME280;1003;48.002;7.788;2023-10-31T09:23:18;98226.34;;;13.89;100.00
5595;BME280;1003;48.002;7.788;2023-10-31T09:25:46;98227.03;;;13.93;100.00
5595;BME280;1003;48.002;7.788;2023-10-31T09:28:14;98227.59;;;13.79;100.00
5595;BME280;1003;48.002;7.788;2023-10-31T09:30:45;98212.53;;;13.54;100.00
5595;BME280;1003;48.002;7.788;2023-10-31T09:33:18;98207.63;;;13.51;100.00
5595;BME280;1003;48.002;7.788;2023-10-31T09:35:48;98196.97;;;13.43;100.00
5595;BME280;1003;48.002;7.788;2023-10-31T09:38:15;98200.50;;;13.61;100.00
5595;BME280;1003;48.002;7.788;2023-10-31T09:40:45;98192.16;;;13.59;100.00
5595;BME280;1003;48.002;7.788;2023-10-31T09:43:18;98201.63;;;13.76;100.00
5595;BME280;1003;48.002;7.788;2023-10-31T09:45:47;98198.50;;;13.91;100.00
5595;BME280;1003;48.002;7.788;2023-10-31T09:48:15;98217.03;;;14.12;100.00
5595;BME280;1003;48.002;7.788;2023-10-31T09:50:46;98207.81;;;14.31;100.00
5595;BME280;1003;48.002;7.788;2023-10-31T09:53:15;98191.97;;;14.28;100.00
5595;BME280;1003;48.002;7.788;2023-10-31T09:55:48;98191.59;;;14.37;100.00
5595;BME280;1003;48.002;7.788;2023-10-31T09:58:16;98194.50;;;14.28;100.00
5595;BME280;1003;48.002;7.788;2023-10-31T10:00:44;98204.03;;;14.41;100.00
5595;BME280;1003;48.002;7.788;2023-10-31T10:03:11;98209.78;;;14.45;100.00
5595;BME280;1003;48.002;7.788;2023-10-31T10:05:53;98210.75;;;14.63;100.00
5595;BME280;1003;48.002;7.788;2023-10-31T10:08:55;98190.22;;;14.70;100.00
5595;BME280;1003;48.002;7.788;2023-10-31T10:11:26;98204.94;;;15.00;100.00
5595;BME280;1003;48.002;7.788;2023-10-31T10:13:54;98195.13;;;15.13;100.00
5595;BME280;1003;48.002;7.788;2023-10-31T10:16:32;98178.69;;;15.03;100.00
5595;BME280;1003;48.002;7.788;2023-10-31T10:21:47;98181.53;;;14.76;100.00
5595;BME280;1003;48.002;7.788;2023-10-31T10:24:15;98191.84;;;14.72;100.00
5595;BME280;1003;48.002;7.788;2023-10-31T10:26:43;98181.25;;;14.82;100.00
5595;BME280;1003;48.002;7.788;2023-10-31T10:31:58;98182.31;;;14.97;100.00
5595;BME280;1003;48.002;7.788;2023-10-31T10:34:25;98192.00;;;15.06;100.00
5595;BME280;1003;48.002;7.788;2023-10-31T10:36:55;98188.38;;;15.12;100.00
5595;BME280;1003;48.002;7.788;2023-10-31T10:39:24;98178.41;;;15.09;100.00
5595;BME280;1003;48.002;7.788;2023-10-31T10:41:56;98178.13;;;15.15;100.00
5595;BME280;1003;48.002;7.788;2023-10-31T10:44:32;98190.78;;;15.15;100.00
5595;BME280;1003;48.002;7.788;2023-10-31T10:47:04;98174.44;;;15.22;100.00
5595;BME280;1003;48.002;7.788;2023-10-31T10:52:18;98174.09;;;15.30;100.00
5595;BME280;1003;48.002;7.788;2023-10-31T10:55:01;98160.66;;;15.46;100.00
5595;BME280;1003;48.002;7.788;2023-10-31T10:57:38;98175.28;;;15.78;100.00
5595;BME280;1003;48.002;7.788;2023-10-31T11:02:44;98184.44;;;15.97;100.00
5595;BME280;1003;48.002;7.788;2023-10-31T11:05:13;98170.91;;;16.16;100.00
5595;BME280;1003;48.002;7.788;2023-10-31T11:07:43;98179.13;;;16.21;100.00
5595;BME280;1003;48.002;7.788;2023-10-31T11:10:12;98163.13;;;16.19;100.00
5595;BME280;1003;48.002;7.788;2023-10-31T11:12:40;98166.56;;;16.18;100.00
5595;BME280;1003;48.002;7.788;2023-10-31T11:15:11;98150.84;;;15.94;100.00
5595;BME280;1003;48.002;7.788;2023-10-31T11:17:43;98166.41;;;15.69;100.00
5595;BME280;1003;48.002;7.788;2023-10-31T11:20:14;98157.00;;;15.35;100.00
5595;BME280;1003;48.002;7.788;2023-10-31T11:22:45;98176.16;;;15.40;100.00
5595;BME280;1003;48.002;7.788;2023-10-31T11:25:18;98178.81;;;15.37;100.00
5595;BME280;1003;48.002;7.788;2023-10-31T11:27:46;98174.84;;;15.51;100.00
5595;BME280;1003;48.002;7.788;2023-10-31T11:30:22;98192.06;;;15.42;100.00
5595;BME280;1003;48.002;7.788;2023-10-31T11:32:54;98180.81;;;15.31;100.00
5595;BME280;1003;48.002;7.788;2023-10-31T11:35:22;98181.50;;;15.34;100.00
5595;BME280;1003;48.002;7.788;2023-10-31T11:38:04;98171.63;;;15.28;100.00
5595;BME280;1003;48.002;7.788;2023-10-31T11:40:35;98180.81;;;15.31;100.00
5595;BME280;1003;48.002;7.788;2023-10-31T11:43:05;98178.53;;;15.43;100.00
5595;BME280;1003;48.002;7.788;2023-10-31T11:45:36;98174.84;;;15.51;100.00
5595;BME280;1003;48.002;7.788;2023-10-31T11:48:05;98188.38;;;15.49;100.00
5595;BME280;1003;48.002;7.788;2023-10-31T11:50:36;98186.53;;;15.53;100.00
5595;BME280;1003;48.002;7.788;2023-10-31T11:53:07;98199.22;;;15.34;100.00
5595;BME280;1003;48.002;7.788;2023-10-31T11:55:36;98185.19;;;15.08;100.00
5595;BME280;1003;48.002;7.788;2023-10-31T11:58:16;98192.44;;;15.16;100.00
5595;BME280;1003;48.002;7.788;2023-10-31T12:00:44;98208.28;;;15.01;100.00
5595;BME280;1003;48.002;7.788;2023-10-31T12:03:16;98199.22;;;14.96;100.00
5595;BME280;1003;48.002;7.788;2023-10-31T12:06:09;98210.00;;;15.00;100.00
5595;BME280;1003;48.002;7.788;2023-10-31T12:08:49;98221.72;;;15.03;100.00
5595;BME280;1003;48.002;7.788;2023-10-31T12:11:21;98224.97;;;15.05;100.00
5595;BME280;1003;48.002;7.788;2023-10-31T12:13:57;98230.47;;;15.14;100.00
5595;BME280;1003;48.002;7.788;2023-10-31T12:16:34;98222.66;;;15.00;100.00
5595;BME280;1003;48.002;7.788;2023-10-31T12:19:04;98227.19;;;15.12;100.00
5595;BME280;1003;48.002;7.788;2023-10-31T12:21:39;98224.16;;;15.04;100.00
5595;BME280;1003;48.002;7.788;2023-10-31T12:24:19;98225.69;;;15.08;100.00
5595;BME280;1003;48.002;7.788;2023-10-31T12:26:47;98226.69;;;14.85;100.00
5595;BME280;1003;48.002;7.788;2023-10-31T12:29:17;98253.00;;;14.81;100.00
5595;BME280;1003;48.002;7.788;2023-10-31T12:31:46;98235.41;;;14.58;100.00
5595;BME280;1003;48.002;7.788;2023-10-31T12:34:14;98255.22;;;14.48;100.00
5595;BME280;1003;48.002;7.788;2023-10-31T12:36:44;98246.69;;;14.29;100.00
5595;BME280;1003;48.002;7.788;2023-10-31T12:39:16;98271.13;;;14.28;100.00
5595;BME280;1003;48.002;7.788;2023-10-31T12:41:44;98273.03;;;14.23;100.00
5595;BME280;1003;48.002;7.788;2023-10-31T12:44:20;98273.28;;;14.17;100.00
5595;BME280;1003;48.002;7.788;2023-10-31T12:46:55;98272.16;;;14.02;100.00
5595;BME280;1003;48.002;7.788;2023-10-31T12:49:23;98304.59;;;14.13;100.00
5595;BME280;1003;48.002;7.788;2023-10-31T12:51:58;98299.06;;;14.03;100.00
5595;BME280;1003;48.002;7.788;2023-10-31T12:54:32;98309.22;;;13.80;100.00
5595;BME280;1003;48.002;7.788;2023-10-31T12:57:02;98329.50;;;14.00;100.00
5595;BME280;1003;48.002;7.788;2023-10-31T12:59:37;98307.50;;;13.80;100.00
5595;BME280;1003;48.002;7.788;2023-10-31T13:02:08;98313.06;;;13.66;100.00
5595;BME280;1003;48.002;7.788;2023-10-31T13:04:42;98324.59;;;13.74;100.00
5595;BME280;1003;48.002;7.788;2023-10-31T13:07:09;98336.94;;;13.81;100.00
5595;BME280;1003;48.002;7.788;2023-10-31T13:09:40;98346.06;;;13.62;100.00
5595;BME280;1003;48.002;7.788;2023-10-31T13:12:09;98358.78;;;13.59;100.00
5595;BME280;1003;48.002;7.788;2023-10-31T13:14:37;98360.81;;;13.49;100.00
5595;BME280;1003;48.002;7.788;2023-10-31T13:17:05;98371.78;;;13.48;100.00
5595;BME280;1003;48.002;7.788;2023-10-31T13:19:33;98391.72;;;13.56;100.00
5595;BME280;1003;48.002;7.788;2023-10-31T13:22:02;98392.06;;;13.47;100.00
5595;BME280;1003;48.002;7.788;2023-10-31T13:24:29;98407.13;;;13.48;100.00
5595;BME280;1003;48.002;7.788;2023-10-31T13:26:58;98408.91;;;13.46;100.00
5595;BME280;1003;48.002;7.788;2023-10-31T13:29:28;98423.31;;;13.43;100.00
5595;BME280;1003;48.002;7.788;2023-10-31T13:31:57;98430.94;;;13.41;100.00
5595;BME280;1003;48.002;7.788;2023-10-31T13:34:24;98373.97;;;13.34;100.00
5595;BME280;1003;48.002;7.788;2023-10-31T13:36:53;98392.56;;;13.56;100.00
5595;BME280;1003;48.002;7.788;2023-10-31T13:39:25;98394.97;;;13.59;100.00
5595;BME280;1003;48.002;7.788;2023-10-31T13:41:53;98409.28;;;13.59;100.00
5595;BME280;1003;48.002;7.788;2023-10-31T13:44:24;98407.13;;;13.48;100.00
5595;BME280;1003;48.002;7.788;2023-10-31T13:46:54;98402.19;;;13.45;100.00
5595;BME280;1003;48.002;7.788;2023-10-31T13:49:21;98385.41;;;13.44;100.00
5595;BME280;1003;48.002;7.788;2023-10-31T13:51:50;98374.84;;;13.33;100.00
5595;BME280;1003;48.002;7.788;2023-10-31T13:54:17;98370.94;;;13.24;100.00
5595;BME280;1003;48.002;7.788;2023-10-31T13:56:45;98373.19;;;13.32;100.00
5595;BME280;1003;48.002;7.788;2023-10-31T13:59:15;98366.56;;;13.29;100.00
5595;BME280;1003;48.002;7.788;2023-10-31T14:01:46;98365.91;;;13.24;100.00